createdAt,value
2023-02-03T00:00:17.639Z,50.42
2023-02-03T00:02:36.971Z,50.11
2023-02-03T00:03:36.340Z,50.06
2023-02-03T00:04:37.622Z,50.09
2023-02-03T00:05:37.094Z,50.15
2023-02-03T00:06:36.231Z,50.20
2023-02-03T00:07:36.232Z,50.17
2023-02-03T00:08:36.304Z,50.17
2023-02-03T00:09:36.250Z,50.13
2023-02-03T00:10:36.257Z,50.02
2023-02-03T00:11:36.301Z,50.03
2023-02-03T00:12:36.262Z,50.11
2023-02-03T00:13:36.239Z,49.91
2023-02-03T00:14:36.240Z,49.85
2023-02-03T00:16:56.937Z,49.97
2023-02-03T00:17:57.425Z,49.76
2023-02-03T00:18:58.017Z,49.59
2023-02-03T00:19:56.810Z,49.55
2023-02-03T00:20:56.642Z,49.65
2023-02-03T00:21:56.950Z,49.76
2023-02-03T00:22:56.820Z,49.76
2023-02-03T00:23:57.532Z,49.85
2023-02-03T00:24:57.229Z,49.72
2023-02-03T00:25:56.809Z,49.81
2023-02-03T00:28:16.649Z,49.82
2023-02-03T00:29:16.837Z,49.93
2023-02-03T00:30:16.354Z,50.10
2023-02-03T00:31:16.643Z,50.09
2023-02-03T00:32:17.005Z,49.94
2023-02-03T00:33:16.231Z,49.89
2023-02-03T00:34:16.405Z,49.73
2023-02-03T00:35:16.210Z,49.73
2023-02-03T00:36:16.224Z,49.79
2023-02-03T00:37:16.426Z,49.76
2023-02-03T00:38:16.231Z,49.64
2023-02-03T00:39:16.246Z,49.75
2023-02-03T00:40:16.241Z,49.78
2023-02-03T00:41:16.257Z,49.73
2023-02-03T00:42:16.195Z,49.71
2023-02-03T00:43:16.241Z,49.89
2023-02-03T00:44:16.208Z,49.86
2023-02-03T00:46:38.569Z,50.02
2023-02-03T00:47:36.600Z,49.91
2023-02-03T00:48:36.942Z,50.02
2023-02-03T00:49:37.783Z,50.05
2023-02-03T00:50:36.872Z,50.05
2023-02-03T00:51:37.723Z,49.99
2023-02-03T00:53:37.542Z,49.98
2023-02-03T00:54:36.976Z,50.14
2023-02-03T00:55:36.340Z,50.13
2023-02-03T00:56:36.765Z,50.05
2023-02-03T00:57:36.607Z,50.04
2023-02-03T00:59:56.673Z,49.93
2023-02-03T01:00:56.733Z,49.78
2023-02-03T01:01:56.598Z,49.64
2023-02-03T01:02:56.371Z,49.61
2023-02-03T01:03:56.419Z,49.71
2023-02-03T01:04:56.387Z,49.59
2023-02-03T01:05:56.467Z,49.60
2023-02-03T01:06:56.284Z,49.56
2023-02-03T01:07:56.328Z,49.49
2023-02-03T01:08:56.310Z,49.49
2023-02-03T01:09:56.421Z,49.52
2023-02-03T01:10:56.475Z,49.58
2023-02-03T01:11:56.317Z,49.69
2023-02-03T01:12:56.305Z,49.82
2023-02-03T01:13:56.307Z,49.74
2023-02-03T01:14:56.567Z,49.72
2023-02-03T01:15:56.315Z,49.70
2023-02-03T01:16:56.316Z,49.66
2023-02-03T01:17:56.362Z,49.67
2023-02-03T01:18:56.347Z,49.67
2023-02-03T01:19:56.258Z,49.72
2023-02-03T01:20:56.327Z,49.78
2023-02-03T01:21:56.196Z,49.70
2023-02-03T01:22:56.166Z,49.64
2023-02-03T01:23:56.302Z,49.62
2023-02-03T01:24:57.021Z,49.68
2023-02-03T01:25:56.278Z,49.80
2023-02-03T01:26:56.341Z,49.84
2023-02-03T01:27:56.313Z,49.80
2023-02-03T01:28:56.320Z,49.94
2023-02-03T02:08:17.526Z,50.69
2023-02-03T02:09:19.086Z,50.67
2023-02-03T02:10:17.286Z,50.67
2023-02-03T02:11:17.384Z,50.58
2023-02-03T02:12:17.361Z,50.60
2023-02-03T02:13:16.960Z,50.59
2023-02-03T02:14:18.621Z,50.58
2023-02-03T02:15:16.902Z,50.67
2023-02-03T02:16:17.329Z,50.61
2023-02-03T02:17:17.150Z,50.59
2023-02-03T02:18:17.135Z,50.63
2023-02-03T02:41:33.376Z,50.38
2023-02-03T02:49:38.803Z,50.46
2023-02-03T02:50:39.921Z,50.45
2023-02-03T03:06:38.987Z,50.67
2023-02-03T03:07:38.385Z,50.81
2023-02-03T03:08:38.528Z,50.86
2023-02-03T03:09:38.461Z,50.88
2023-02-03T03:10:38.362Z,50.97
2023-02-03T03:11:38.339Z,50.97
2023-02-03T03:12:38.510Z,50.90
2023-02-03T03:13:38.324Z,50.90
2023-02-03T03:14:38.315Z,50.84
2023-02-03T03:15:38.299Z,50.85
2023-02-03T03:16:38.295Z,50.81
2023-02-03T03:17:38.318Z,50.89
2023-02-03T03:18:38.324Z,50.76
2023-02-03T03:19:38.298Z,50.80
2023-02-03T03:20:38.312Z,50.83
2023-02-03T03:21:38.298Z,50.86
2023-02-03T03:22:38.220Z,50.88
2023-02-03T04:07:14.905Z,50.49
2023-02-03T04:55:19.694Z,50.52
2023-02-03T04:56:18.200Z,50.46
2023-02-03T04:57:18.402Z,50.47
2023-02-03T04:58:18.786Z,50.42
2023-02-03T04:59:18.119Z,50.51
2023-02-03T05:00:18.325Z,50.53
2023-02-03T05:01:18.180Z,50.56
2023-02-03T05:02:18.207Z,50.49
2023-02-03T05:03:18.194Z,50.53
2023-02-03T05:04:18.156Z,50.61
2023-02-03T05:05:18.082Z,50.51
2023-02-03T05:06:18.072Z,50.55
2023-02-03T05:07:18.068Z,50.51
2023-02-03T05:08:18.150Z,50.41
2023-02-03T05:09:18.317Z,50.32
2023-02-03T05:10:18.152Z,50.29
2023-02-03T05:11:18.113Z,50.36
2023-02-03T05:12:18.124Z,50.37
2023-02-03T05:13:18.053Z,50.44
2023-02-03T05:14:18.123Z,50.61
2023-02-03T05:15:18.140Z,50.27
2023-02-03T05:16:18.018Z,50.07
2023-02-03T05:17:17.983Z,50.06
2023-02-03T05:18:18.003Z,49.94
2023-02-03T05:19:18.052Z,49.65
2023-02-03T05:20:17.982Z,49.61
2023-02-03T05:21:17.997Z,49.72
2023-02-03T05:22:18.176Z,49.88
2023-02-03T05:23:17.993Z,49.89
2023-02-03T05:24:17.975Z,49.95
2023-02-03T05:25:17.958Z,50.01
2023-02-03T05:26:17.960Z,50.23
2023-02-03T05:27:17.915Z,50.41
2023-02-03T05:28:18.034Z,50.47
2023-02-03T05:29:18.037Z,50.55
2023-02-03T05:30:18.116Z,50.49
2023-02-03T05:31:18.258Z,50.32
2023-02-03T05:32:18.159Z,50.35
2023-02-03T05:33:18.148Z,50.31
2023-02-03T05:34:18.271Z,50.28
2023-02-03T05:35:18.303Z,50.29
2023-02-03T05:36:18.322Z,50.31
2023-02-03T05:37:18.382Z,50.37
2023-02-03T05:38:18.371Z,50.40
2023-02-03T05:39:18.486Z,50.34
2023-02-03T05:40:18.534Z,50.33
2023-02-03T05:41:18.668Z,50.35
2023-02-03T05:42:18.711Z,50.31
2023-02-03T05:43:18.744Z,50.27
2023-02-03T05:44:18.728Z,50.22
2023-02-03T05:45:18.807Z,50.23
2023-02-03T05:46:18.913Z,50.16
2023-02-03T05:47:18.850Z,50.15
2023-02-03T05:48:18.859Z,50.21
2023-02-03T05:49:18.863Z,50.17
2023-02-03T05:50:19.001Z,50.22
2023-02-03T05:51:18.984Z,50.20
2023-02-03T05:52:19.014Z,50.16
2023-02-03T05:53:20.017Z,50.14
2023-02-03T05:54:19.198Z,50.13
2023-02-03T05:55:19.179Z,50.11
2023-02-03T05:56:19.148Z,50.13
2023-02-03T05:57:19.260Z,50.15
2023-02-03T05:58:19.246Z,50.20
2023-02-03T05:59:19.259Z,49.98
2023-02-03T06:00:19.300Z,49.95
2023-02-03T06:02:40.199Z,50.08
2023-02-03T06:03:39.422Z,49.99
2023-02-03T06:04:39.401Z,49.97
2023-02-03T06:10:15.132Z,49.99
2023-02-03T06:18:20.690Z,50.01
2023-02-03T06:25:40.288Z,50.18
2023-02-03T06:26:39.715Z,50.31
2023-02-03T06:27:40.574Z,50.29
2023-02-03T06:34:20.099Z,50.82
2023-02-03T06:35:19.742Z,50.77
2023-02-03T06:36:20.495Z,50.80
2023-02-03T06:37:19.214Z,50.83
2023-02-03T06:38:20.104Z,50.81
2023-02-03T06:39:19.219Z,50.72
2023-02-03T06:40:19.638Z,50.63
2023-02-03T06:42:39.808Z,50.54
2023-02-03T06:43:39.607Z,50.51
2023-02-03T06:44:39.005Z,50.40
2023-02-03T06:45:39.392Z,50.52
2023-02-03T07:22:15.080Z,50.57
2023-02-03T07:24:19.722Z,50.58
2023-02-03T07:25:19.144Z,50.46
2023-02-03T07:27:39.546Z,50.39
2023-02-03T07:28:39.122Z,50.33
2023-02-03T07:36:20.001Z,50.44
2023-02-03T07:37:19.725Z,50.32
2023-02-03T07:38:19.817Z,50.35
2023-02-03T07:39:19.591Z,50.23
2023-02-03T07:40:20.163Z,50.11
2023-02-03T07:41:20.216Z,49.89
2023-02-03T07:42:20.759Z,49.72
2023-02-03T07:44:42.755Z,49.57
2023-02-03T07:47:05.370Z,49.96
2023-02-03T07:48:05.192Z,50.08
2023-02-03T07:49:05.919Z,50.01
2023-02-03T07:50:04.792Z,50.09
2023-02-03T07:51:04.937Z,50.18
2023-02-03T07:52:04.683Z,50.22
2023-02-03T07:53:04.760Z,50.18
2023-02-03T07:54:04.504Z,50.11
2023-02-03T07:55:04.530Z,50.38
2023-02-03T07:56:04.537Z,50.18
2023-02-03T07:57:04.460Z,50.03
2023-02-03T07:58:04.602Z,49.96
2023-02-03T07:59:05.524Z,50.35
2023-02-03T08:00:04.547Z,50.56
2023-02-03T08:01:04.463Z,50.60
2023-02-03T08:02:04.559Z,50.38
2023-02-03T08:03:04.525Z,50.42
2023-02-03T08:04:04.602Z,50.45
2023-02-03T08:05:04.612Z,50.44
2023-02-03T08:06:18.791Z,50.40
2023-02-03T08:07:04.963Z,49.82
2023-02-03T08:48:43.766Z,49.30
2023-02-03T08:49:42.833Z,49.03
2023-02-03T08:50:42.698Z,48.62
2023-02-03T08:51:42.917Z,48.26
2023-02-03T08:52:42.661Z,48.27
2023-02-03T09:01:50.753Z,46.70
2023-02-03T09:02:50.639Z,46.64
2023-02-03T09:03:50.846Z,46.60
2023-02-03T09:04:51.253Z,46.33
2023-02-03T09:05:50.663Z,46.17
2023-02-03T09:06:50.690Z,46.62
2023-02-03T09:07:50.616Z,46.46
2023-02-03T09:08:50.540Z,46.48
2023-02-03T09:09:50.621Z,46.49
2023-02-03T09:10:50.663Z,46.52
2023-02-03T09:11:50.724Z,46.62
2023-02-03T09:12:50.537Z,46.66
2023-02-03T09:13:50.527Z,46.57
2023-02-03T09:14:50.632Z,46.38
2023-02-03T09:17:14.064Z,45.77
2023-02-03T09:18:13.331Z,45.79
2023-02-03T09:19:13.295Z,45.62
2023-02-03T09:20:14.932Z,45.47
2023-02-03T09:23:55.757Z,45.69
2023-02-03T09:26:37.235Z,45.88
2023-02-03T09:27:35.549Z,45.65
2023-02-03T09:28:34.278Z,45.62
2023-02-03T09:29:34.339Z,45.48
2023-02-03T09:30:35.281Z,45.10
2023-02-03T09:31:34.266Z,44.86
2023-02-03T09:33:53.716Z,43.19
2023-02-03T09:34:54.718Z,42.93
2023-02-03T09:35:54.506Z,43.14
2023-02-03T09:38:13.691Z,43.14
2023-02-03T09:39:13.960Z,43.28
2023-02-03T09:40:14.281Z,43.12
2023-02-03T09:41:13.864Z,42.35
2023-02-03T09:42:13.481Z,41.77
2023-02-03T09:43:13.594Z,41.34
2023-02-03T09:44:13.903Z,40.20
2023-02-03T09:46:33.874Z,40.09
2023-02-03T09:49:35.847Z,40.04
2023-02-03T09:50:35.379Z,39.85
2023-02-03T09:52:53.542Z,39.91
2023-02-03T09:53:53.283Z,39.88
2023-02-03T09:54:54.520Z,40.13
2023-02-03T09:55:53.195Z,40.93
2023-02-03T09:56:54.052Z,40.98
2023-02-03T09:57:54.073Z,41.19
2023-02-03T09:58:53.750Z,41.41
2023-02-03T09:59:52.990Z,41.84
2023-02-03T10:00:53.002Z,42.41
2023-02-03T10:01:53.237Z,42.76
2023-02-03T10:02:53.112Z,42.76
2023-02-03T10:03:52.989Z,42.41
2023-02-03T10:04:53.215Z,42.25
2023-02-03T10:06:53.507Z,41.94
2023-02-03T10:07:53.440Z,42.11
2023-02-03T10:08:53.146Z,42.12
2023-02-03T10:09:53.048Z,41.79
2023-02-03T10:10:53.815Z,41.91
2023-02-03T10:11:53.324Z,41.95
2023-02-03T10:14:53.955Z,42.03
2023-02-03T10:16:53.092Z,41.65
2023-02-03T10:26:53.350Z,42.97
2023-02-03T10:38:53.413Z,41.45
2023-02-03T10:40:53.160Z,41.70
2023-02-03T10:41:53.311Z,41.94
2023-02-03T10:46:34.837Z,42.45
2023-02-03T11:36:37.915Z,42.88
2023-02-03T12:36:24.420Z,39.33
2023-02-03T12:37:24.305Z,39.11
2023-02-03T12:38:24.320Z,39.31
2023-02-03T12:39:24.864Z,39.06
2023-02-03T12:40:24.134Z,39.43
2023-02-03T12:41:24.144Z,39.65
2023-02-03T12:42:24.157Z,39.02
2023-02-03T12:43:24.157Z,38.62
2023-02-03T12:44:24.141Z,38.57
2023-02-03T12:45:24.267Z,38.49
2023-02-03T12:46:24.109Z,38.18
2023-02-03T12:47:25.404Z,38.11
2023-02-03T12:48:24.159Z,38.82
2023-02-03T12:49:24.075Z,38.93
2023-02-03T12:50:24.193Z,38.84
2023-02-03T12:51:24.170Z,38.91
2023-02-03T12:52:24.190Z,39.14
2023-02-03T12:53:24.056Z,38.97
2023-02-03T12:54:24.088Z,39.10
2023-02-03T12:55:24.152Z,39.24
2023-02-03T12:56:24.177Z,39.51
2023-02-03T12:57:24.225Z,39.41
2023-02-03T12:58:24.279Z,39.38
2023-02-03T12:59:24.540Z,39.57
2023-02-03T13:00:24.370Z,39.86
2023-02-03T13:01:24.615Z,40.02
2023-02-03T13:02:24.482Z,40.23
2023-02-03T13:03:24.587Z,41.02
2023-02-03T13:04:24.695Z,40.50
2023-02-03T13:05:24.648Z,40.32
2023-02-03T13:06:24.661Z,40.57
2023-02-03T13:07:24.732Z,40.93
2023-02-03T13:08:24.716Z,41.13
2023-02-03T13:09:24.868Z,41.59
2023-02-03T13:10:24.855Z,41.30
2023-02-03T13:11:24.889Z,41.51
2023-02-03T13:12:25.083Z,41.35
2023-02-03T13:13:25.049Z,40.75
2023-02-03T13:14:40.644Z,40.75
2023-02-03T13:15:24.919Z,41.29
2023-02-03T13:16:24.980Z,41.25
2023-02-03T13:20:04.520Z,41.61
2023-02-03T13:21:03.799Z,41.92
2023-02-03T13:22:04.230Z,42.18
2023-02-03T13:23:03.725Z,42.58
2023-02-03T13:24:03.605Z,42.31
2023-02-03T13:25:03.618Z,41.68
2023-02-03T13:26:03.665Z,41.87
2023-02-03T13:27:03.557Z,41.07
2023-02-03T13:29:24.652Z,40.57
2023-02-03T13:30:23.763Z,40.67
2023-02-03T13:31:24.214Z,41.01
2023-02-03T13:32:23.810Z,41.59
2023-02-03T13:33:23.591Z,41.11
2023-02-03T13:34:23.864Z,41.03
2023-02-03T13:35:32.330Z,40.35
2023-02-03T13:37:43.106Z,40.13
2023-02-03T13:38:43.110Z,40.08
2023-02-03T13:39:43.127Z,40.14
2023-02-03T13:40:43.062Z,40.08
2023-02-03T13:41:43.029Z,40.30
2023-02-03T13:42:43.021Z,40.40
2023-02-03T13:43:43.005Z,40.26
2023-02-03T13:44:42.987Z,40.60
2023-02-03T13:45:43.102Z,40.22
2023-02-03T13:46:42.981Z,40.39
2023-02-03T13:47:42.926Z,40.53
2023-02-03T13:48:42.948Z,40.94
2023-02-03T13:49:42.939Z,41.18
2023-02-03T13:50:42.956Z,40.80
2023-02-03T13:51:42.952Z,40.11
2023-02-03T13:52:42.936Z,40.22
2023-02-03T13:53:43.006Z,40.27
2023-02-03T13:54:43.111Z,40.52
2023-02-03T13:55:43.005Z,40.78
2023-02-03T13:56:43.095Z,40.83
2023-02-03T13:57:43.112Z,40.72
2023-02-03T13:58:43.092Z,41.10
2023-02-03T13:59:42.974Z,41.02
2023-02-03T14:00:42.894Z,41.29
2023-02-03T14:01:42.928Z,41.04
2023-02-03T14:02:42.953Z,40.39
2023-02-03T14:03:42.915Z,40.36
2023-02-03T14:04:42.896Z,40.59
2023-02-03T14:05:42.853Z,40.34
2023-02-03T14:06:42.794Z,39.97
2023-02-03T14:07:42.939Z,39.75
2023-02-03T14:08:42.997Z,39.35
2023-02-03T14:09:42.879Z,39.68
2023-02-03T14:10:42.882Z,39.39
2023-02-03T14:11:42.781Z,39.31
2023-02-03T14:12:42.820Z,39.73
2023-02-03T14:13:42.801Z,39.89
2023-02-03T14:14:43.145Z,39.65
2023-02-03T14:15:42.793Z,39.80
2023-02-03T14:16:42.979Z,40.01
2023-02-03T14:34:41.461Z,40.30
2023-02-03T14:35:41.041Z,40.26
2023-02-03T14:36:41.092Z,40.24
2023-02-03T14:37:41.046Z,40.30
2023-02-03T14:38:41.028Z,40.47
2023-02-03T14:39:41.073Z,40.08
2023-02-03T14:40:41.259Z,39.71
2023-02-03T15:10:41.029Z,40.43
2023-02-03T15:11:40.834Z,40.82
2023-02-03T15:12:40.493Z,40.74
2023-02-03T15:13:40.435Z,40.79
2023-02-03T15:14:40.425Z,40.72
2023-02-03T15:15:40.482Z,40.49
2023-02-03T15:16:40.379Z,40.44
2023-02-03T15:17:40.432Z,40.07
2023-02-03T15:18:40.478Z,40.13
2023-02-03T15:19:40.373Z,40.30
2023-02-03T15:20:40.541Z,40.33
2023-02-03T15:21:40.597Z,40.12
2023-02-03T15:22:40.422Z,40.07
2023-02-03T15:32:40.215Z,41.63
2023-02-03T15:44:40.019Z,41.77
2023-02-03T15:45:39.639Z,41.83
2023-02-03T15:48:58.771Z,41.91
2023-02-03T15:51:00.533Z,41.82
2023-02-03T15:51:58.704Z,41.58
2023-02-03T15:52:59.941Z,41.54
2023-02-03T15:59:18.469Z,41.76
2023-02-03T16:00:18.038Z,41.81
2023-02-03T16:01:18.285Z,41.76
2023-02-03T16:02:18.062Z,41.94
2023-02-03T16:03:18.162Z,41.90
2023-02-03T16:04:18.081Z,42.00
2023-02-03T16:05:18.050Z,42.01
2023-02-03T16:06:18.225Z,42.09
2023-02-03T16:07:18.193Z,41.94
2023-02-03T17:24:40.694Z,47.30
2023-02-03T17:27:45.644Z,47.14
2023-02-03T17:28:45.570Z,47.04
2023-02-03T17:29:44.998Z,46.96
2023-02-03T17:30:45.081Z,47.20
2023-02-03T17:31:45.078Z,47.02
2023-02-03T17:32:44.984Z,47.07
2023-02-03T17:33:45.037Z,46.93
2023-02-03T17:34:45.007Z,46.89
2023-02-03T17:35:44.999Z,46.68
2023-02-03T17:36:44.955Z,46.68
2023-02-03T17:37:44.977Z,46.82
2023-02-03T17:53:22.548Z,47.25
2023-02-03T17:54:22.589Z,46.78
2023-02-03T17:55:22.462Z,46.30
2023-02-03T17:56:22.373Z,46.55
2023-02-03T17:57:22.415Z,46.36
2023-02-03T17:58:22.370Z,46.55
2023-02-03T17:59:22.331Z,46.54
2023-02-03T18:00:22.327Z,45.79
2023-02-03T18:01:22.402Z,46.17
2023-02-03T18:02:22.409Z,46.36
2023-02-03T18:03:22.328Z,46.48
2023-02-03T18:04:22.302Z,46.51
2023-02-03T18:05:22.306Z,46.63
2023-02-03T18:06:22.325Z,46.89
2023-02-03T18:08:25.255Z,46.89
2023-02-03T18:09:22.613Z,47.83
2023-02-03T18:10:23.885Z,48.24
2023-02-03T18:11:23.676Z,48.20
2023-02-03T18:12:26.737Z,49.02
2023-02-03T18:13:24.128Z,49.28
2023-02-03T18:14:23.507Z,49.66
2023-02-03T18:15:22.909Z,50.21
2023-02-03T18:16:22.707Z,51.60
2023-02-03T18:17:23.190Z,51.79
2023-02-03T18:18:24.058Z,52.39
2023-02-03T18:19:23.175Z,52.70
2023-02-03T18:20:22.940Z,52.56
2023-02-03T18:21:24.005Z,51.77
2023-02-03T18:22:23.884Z,51.79
2023-02-03T18:23:23.043Z,51.55
2023-02-03T18:25:22.927Z,50.42
2023-02-03T18:26:22.669Z,50.38
2023-02-03T18:27:22.609Z,49.49
2023-02-03T18:28:22.762Z,50.79
2023-02-03T18:29:22.809Z,50.34
2023-02-03T18:30:23.370Z,47.98
2023-02-03T18:31:22.742Z,48.46
2023-02-03T18:32:22.574Z,49.48
2023-02-03T18:33:22.752Z,48.82
2023-02-03T18:34:22.528Z,46.28
2023-02-03T18:35:22.545Z,48.47
2023-02-03T18:36:22.549Z,48.90
2023-02-03T18:37:22.609Z,49.82
2023-02-03T18:38:22.557Z,49.11
2023-02-03T18:39:22.536Z,49.45
2023-02-03T19:32:02.064Z,51.91
2023-02-03T19:52:02.494Z,53.11
2023-02-03T19:53:02.556Z,53.90
2023-02-03T19:54:02.575Z,53.10
2023-02-03T19:55:02.601Z,53.62
2023-02-03T19:56:02.584Z,53.86
2023-02-03T19:57:02.645Z,53.62
2023-02-03T19:58:02.605Z,53.84
2023-02-03T19:59:02.660Z,53.79
2023-02-03T20:00:02.689Z,53.92
2023-02-03T20:01:02.722Z,53.63
2023-02-03T20:02:13.669Z,53.75
2023-02-03T20:03:03.761Z,53.70
2023-02-03T20:04:02.767Z,53.37
2023-02-03T20:05:02.782Z,53.60
2023-02-03T20:06:02.743Z,53.79
2023-02-03T20:07:02.746Z,53.67
2023-02-03T20:08:02.717Z,53.78
2023-02-03T20:09:02.676Z,54.29
2023-02-03T20:10:02.826Z,54.55
2023-02-03T20:11:02.689Z,54.08
2023-02-03T20:12:02.646Z,54.46
2023-02-03T20:13:02.655Z,54.15
2023-02-03T20:14:02.668Z,53.70
2023-02-03T20:15:02.713Z,53.92
2023-02-03T20:16:02.753Z,54.00
2023-02-03T20:17:02.780Z,54.28
2023-02-03T20:18:02.686Z,54.04
2023-02-03T20:19:02.728Z,53.96
2023-02-03T20:20:02.747Z,53.90
2023-02-03T20:21:02.853Z,54.06
2023-02-03T20:22:02.864Z,53.89
2023-02-03T20:23:02.856Z,53.97
2023-02-03T20:24:02.831Z,53.96
2023-02-03T20:25:03.244Z,53.84
2023-02-03T20:26:02.932Z,53.75
2023-02-03T20:27:02.925Z,53.64
2023-02-03T20:28:02.970Z,53.67
2023-02-03T20:33:04.865Z,53.05
2023-02-03T20:40:24.984Z,54.24
2023-02-03T20:41:24.593Z,54.25
2023-02-03T20:42:24.655Z,54.20
2023-02-03T20:43:24.879Z,54.12
2023-02-03T20:44:25.117Z,54.19
2023-02-03T20:45:24.645Z,54.15
2023-02-03T20:46:24.563Z,54.15
2023-02-03T20:47:24.538Z,54.11
2023-02-03T20:48:24.530Z,54.40
2023-02-03T20:49:24.482Z,54.31
2023-02-03T20:50:31.543Z,54.54
2023-02-03T20:51:25.575Z,54.66
2023-02-03T20:52:24.493Z,54.57
2023-02-03T20:53:24.560Z,54.41
2023-02-03T20:54:24.566Z,54.50
2023-02-03T20:55:24.497Z,53.85
2023-02-03T20:56:25.158Z,54.06
2023-02-03T20:57:24.511Z,54.11
2023-02-03T20:58:24.510Z,53.83
2023-02-03T20:59:24.597Z,53.70
2023-02-03T21:00:24.510Z,53.94
2023-02-03T21:01:24.488Z,54.16
2023-02-03T21:02:24.615Z,54.32
2023-02-03T21:03:24.625Z,54.24
2023-02-03T21:04:24.580Z,54.30
2023-02-03T21:05:24.615Z,54.26
2023-02-03T21:06:24.635Z,54.20
2023-02-03T21:07:24.667Z,53.87
2023-02-03T21:08:24.940Z,53.89
2023-02-03T21:09:24.734Z,54.09
2023-02-03T21:10:24.733Z,54.16
2023-02-03T21:11:24.759Z,54.65
2023-02-03T21:12:24.763Z,54.35
2023-02-03T21:13:24.817Z,54.38
2023-02-03T21:14:24.905Z,54.26
2023-02-03T21:15:25.064Z,55.30
2023-02-03T21:16:24.916Z,55.87
2023-02-03T21:17:24.933Z,56.07
2023-02-03T21:18:24.962Z,56.09
2023-02-03T21:19:24.953Z,56.03
2023-02-03T21:20:25.014Z,55.95
2023-02-03T21:21:25.217Z,55.96
2023-02-03T21:22:25.187Z,55.38
2023-02-03T21:23:25.203Z,55.13
2023-02-03T21:24:25.237Z,54.97
2023-02-03T21:25:25.292Z,55.21
2023-02-03T21:26:25.343Z,55.15
2023-02-03T21:27:25.346Z,55.29
2023-02-03T21:29:46.120Z,54.88
2023-02-03T21:30:46.621Z,54.75
2023-02-03T21:31:45.555Z,54.52
2023-02-03T21:32:45.247Z,54.79
2023-02-03T21:33:45.221Z,55.15
2023-02-03T21:34:45.211Z,55.14
2023-02-03T21:35:45.138Z,55.03
2023-02-03T21:36:45.678Z,55.02
2023-02-03T21:37:46.134Z,54.70
2023-02-03T21:38:45.079Z,54.98
2023-02-03T21:39:45.194Z,55.04
2023-02-03T21:40:45.182Z,54.37
2023-02-03T21:41:46.258Z,54.90
2023-02-03T21:42:46.403Z,55.21
2023-02-03T21:43:45.003Z,55.35
2023-02-03T21:44:45.263Z,55.01
2023-02-03T21:45:45.306Z,55.02
2023-02-03T21:46:45.338Z,55.05
2023-02-03T21:47:46.373Z,54.76
2023-02-03T21:48:47.603Z,54.97
2023-02-03T21:49:45.504Z,54.56
2023-02-03T21:50:46.396Z,54.86
2023-02-03T21:51:46.436Z,54.67
2023-02-03T21:52:46.005Z,54.38
2023-02-03T21:53:46.430Z,54.56
2023-02-03T21:54:45.457Z,54.39
2023-02-03T21:55:45.636Z,54.20
2023-02-03T21:56:45.486Z,54.43
2023-02-03T21:57:45.293Z,54.29
2023-02-03T21:58:46.241Z,55.05
2023-02-03T21:59:45.198Z,55.35
2023-02-03T22:00:45.259Z,55.31
2023-02-03T22:01:45.236Z,55.22
2023-02-03T22:02:46.423Z,55.18
2023-02-03T22:03:45.609Z,54.97
2023-02-03T22:04:45.493Z,54.91
2023-02-03T22:05:45.237Z,54.72
2023-02-03T22:06:46.337Z,54.65
2023-02-03T22:07:45.611Z,54.14
2023-02-03T22:08:45.682Z,54.07
2023-02-03T22:09:45.892Z,54.42
2023-02-03T22:10:45.218Z,53.94
2023-02-03T22:11:45.241Z,54.03
2023-02-03T22:12:46.364Z,54.05
2023-02-03T22:13:45.423Z,54.08
2023-02-03T22:14:45.123Z,54.26
2023-02-03T22:15:45.326Z,54.08
2023-02-03T22:16:45.300Z,53.99
2023-02-03T22:17:45.242Z,53.86
2023-02-03T22:18:46.166Z,53.87
2023-02-03T22:19:45.424Z,54.09
2023-02-03T22:20:46.522Z,54.49
2023-02-03T22:21:45.638Z,54.25
2023-02-03T22:22:45.424Z,54.13
2023-02-03T22:23:45.406Z,54.63
2023-02-03T22:24:45.627Z,54.93
2023-02-03T22:25:45.440Z,55.28
2023-02-03T22:26:46.154Z,55.80
2023-02-03T22:27:45.872Z,55.53
2023-02-03T22:28:46.175Z,55.94
2023-02-03T22:29:45.862Z,57.27
2023-02-03T22:30:46.795Z,57.36
2023-02-03T22:31:46.024Z,57.29
2023-02-03T22:32:45.974Z,57.18
2023-02-03T22:33:46.134Z,57.09
2023-02-03T22:34:46.265Z,57.11
2023-02-03T22:35:47.305Z,56.76
2023-02-03T22:36:46.998Z,56.52
2023-02-03T22:37:46.096Z,56.68
2023-02-03T22:38:46.057Z,56.41
2023-02-03T22:39:46.019Z,56.44
2023-02-03T22:40:46.149Z,56.07
2023-02-03T22:41:46.139Z,55.64
2023-02-03T22:42:46.469Z,56.34
2023-02-03T22:43:46.314Z,56.11
2023-02-03T22:44:46.586Z,56.29
2023-02-03T22:45:46.555Z,56.25
2023-02-03T22:46:46.625Z,56.07
2023-02-03T22:47:47.462Z,56.03
2023-02-03T22:48:46.947Z,55.84
2023-02-03T22:49:47.835Z,55.86
2023-02-03T22:50:46.614Z,55.65
2023-02-03T22:51:46.782Z,55.20
2023-02-03T22:52:46.689Z,54.39
2023-02-03T22:53:46.647Z,54.60
2023-02-03T22:54:46.616Z,54.62
2023-02-03T22:55:47.640Z,54.65
2023-02-03T22:56:47.691Z,54.44
2023-02-03T22:57:46.565Z,54.36
2023-02-03T22:58:46.575Z,54.23
2023-02-03T22:59:46.713Z,53.92
2023-02-03T23:00:46.754Z,54.03
2023-02-03T23:01:47.719Z,54.24
2023-02-03T23:02:46.888Z,53.94
2023-02-03T23:03:46.858Z,53.45
2023-02-03T23:04:47.156Z,53.33
2023-02-03T23:05:46.997Z,53.41
2023-02-03T23:06:47.085Z,53.14
2023-02-03T23:07:48.350Z,53.21
2023-02-03T23:08:47.075Z,53.64
2023-02-03T23:09:47.213Z,53.43
2023-02-03T23:59:52.806Z,52.67
